Time;durP1;ratioP1;P1;durP2;ratioP2;P2;SDS_P1;SDS_P2;PMS_P1;PMS_P2;Temp;Humidity;BMP_temperature;BMP_pressure;BME280_temperature;BME280_humidity;BME280_pressure;Samples;Min_cycle;Max_cycle;Signal;HPM_P1;HPM_P2
2022/11/02 00:02:16;;;;;;;18.73;3.88;;;7.20;99.90;;;7.19;100.00;100696.38;5024966;28;20265;-83
2022/11/02 00:04:44;;;;;;;26.27;5.13;;;7.20;99.90;;;7.22;100.00;100703.44;5021313;28;20238;-83
2022/11/02 00:07:11;;;;;;;21.85;4.47;;;7.20;99.90;;;7.22;100.00;100698.19;5027809;28;20284;-83
2022/11/02 00:09:38;;;;;;;23.23;4.72;;;7.20;99.90;;;7.23;100.00;100703.50;5019268;28;20336;-83
2022/11/02 00:12:06;;;;;;;23.20;4.80;;;7.20;99.90;;;7.25;100.00;100706.16;5023945;28;20293;-83
2022/11/02 00:14:33;;;;;;;25.55;5.18;;;7.20;99.90;;;7.30;100.00;100708.06;5025748;28;20661;-83
2022/11/02 00:17:00;;;;;;;28.17;5.72;;;7.20;99.90;;;7.25;100.00;100704.41;5027953;28;20320;-83
2022/11/02 00:19:29;;;;;;;21.13;4.32;;;7.20;99.90;;;7.17;100.00;100691.91;5013884;28;20308;-83
2022/11/02 00:21:57;;;;;;;20.40;4.18;;;7.00;99.90;;;7.22;100.00;100700.81;5004350;28;20309;-83
2022/11/02 00:24:24;;;;;;;16.65;3.45;;;7.10;99.90;;;7.13;100.00;100692.69;4993095;28;20254;-84
2022/11/02 00:26:53;;;;;;;18.83;3.83;;;7.10;99.90;;;7.02;100.00;100685.41;5012660;28;20369;-84
2022/11/02 00:29:22;;;;;;;19.10;3.88;;;7.00;99.90;;;7.06;100.00;100691.63;5004577;28;20258;-84
2022/11/02 00:31:49;;;;;;;21.13;4.15;;;7.00;99.90;;;7.06;100.00;100695.16;5007234;28;20223;-84
2022/11/02 00:34:16;;;;;;;19.30;3.95;;;7.00;99.90;;;7.18;100.00;100714.75;5028058;28;20243;-84
2022/11/02 00:36:44;;;;;;;31.80;5.97;;;7.00;99.90;;;6.96;100.00;100686.97;5018022;28;20339;-83
2022/11/02 00:39:11;;;;;;;29.02;5.45;;;6.90;99.90;;;7.05;100.00;100692.47;5005015;28;20338;-83
2022/11/02 00:41:38;;;;;;;27.58;5.47;;;6.90;99.90;;;6.83;100.00;100676.97;5025059;28;20235;-84
2022/11/02 00:44:05;;;;;;;26.05;4.97;;;6.90;99.90;;;6.76;100.00;100683.78;5024569;28;20232;-83
2022/11/02 00:46:32;;;;;;;27.33;5.10;;;6.70;99.90;;;6.82;100.00;100696.22;5017257;28;20247;-83
2022/11/02 00:48:59;;;;;;;25.30;5.05;;;6.80;99.90;;;6.81;100.00;100684.81;5028909;28;20687;-84
2022/11/02 00:51:26;;;;;;;20.95;4.18;;;6.70;99.90;;;6.69;100.00;100687.09;5025087;28;20289;-84
2022/11/02 00:53:53;;;;;;;21.55;4.38;;;6.70;99.90;;;6.86;100.00;100704.22;5021602;28;20278;-84
2022/11/02 00:56:20;;;;;;;21.42;4.25;;;6.80;99.90;;;6.85;100.00;100718.22;5022357;28;20289;-84
2022/11/02 00:58:47;;;;;;;18.30;3.63;;;6.80;99.90;;;6.87;100.00;100707.75;5021625;28;20231;-84
2022/11/02 01:01:15;;;;;;;34.17;6.40;;;6.80;99.90;;;6.87;100.00;100711.25;5005973;28;20292;-84
2022/11/02 01:03:42;;;;;;;26.73;5.15;;;6.80;99.90;;;6.83;100.00;100700.63;5021183;28;20237;-83
2022/11/02 01:06:14;;;;;;;26.02;5.05;;;6.70;99.90;;;7.02;100.00;100718.69;4999118;28;20239;-84
2022/11/02 01:08:41;;;;;;;22.65;4.53;;;6.90;99.90;;;6.81;100.00;100702.31;5000028;28;20240;-84
2022/11/02 01:11:14;;;;;;;20.83;4.22;;;6.80;99.90;;;6.87;100.00;100706.00;5023151;28;20246;-84
2022/11/02 01:13:41;;;;;;;23.70;4.82;;;6.80;99.90;;;6.97;100.00;100718.56;5005799;28;20258;-84
2022/11/02 01:16:08;;;;;;;21.63;4.35;;;6.90;99.90;;;6.74;100.00;100703.88;5003869;28;20678;-84
2022/11/02 01:18:36;;;;;;;26.00;5.05;;;6.70;99.90;;;6.85;100.00;100712.97;5018815;28;20250;-84
2022/11/02 01:21:03;;;;;;;21.40;4.25;;;6.80;99.90;;;7.06;100.00;100720.56;5030969;28;20234;-84
2022/11/02 01:23:33;;;;;;;29.20;5.80;;;6.90;99.90;;;7.09;100.00;100711.84;5010884;28;20317;-83
2022/11/02 01:26:08;;;;;;;24.02;4.82;;;7.00;99.90;;;7.12;100.00;100712.84;5029160;28;20262;-84
2022/11/02 01:28:36;;;;;;;19.77;4.05;;;7.10;99.90;;;7.12;100.00;100707.56;5021282;28;20322;-84
2022/11/02 01:31:05;;;;;;;31.00;6.10;;;7.10;99.90;;;7.17;100.00;100716.47;5023299;28;20311;-84
2022/11/02 01:33:32;;;;;;;25.05;4.95;;;7.10;99.90;;;7.10;100.00;100717.16;5013706;28;20254;-83
2022/11/02 01:36:04;;;;;;;24.77;4.88;;;7.10;99.90;;;7.11;100.00;100718.06;5023826;28;20655;-84
2022/11/02 01:38:32;;;;;;;25.20;4.93;;;7.00;99.90;;;7.14;100.00;100728.66;5025945;28;20243;-84
2022/11/02 01:40:59;;;;;;;23.20;4.60;;;7.30;99.90;;;7.15;100.00;100718.19;5020833;28;20262;-84
2022/11/02 01:43:34;;;;;;;20.92;4.20;;;7.10;99.90;;;7.19;100.00;100730.56;5011474;28;20286;-84
2022/11/02 01:46:07;;;;;;;28.05;5.35;;;7.10;99.90;;;7.17;100.00;100720.84;5028782;28;20254;-84
2022/11/02 01:48:50;;;;;;;27.38;5.22;;;7.10;99.90;;;7.17;100.00;100713.84;5010852;28;20274;-84
2022/11/02 01:51:34;;;;;;;22.08;4.40;;;7.10;99.90;;;7.21;100.00;100720.09;5000043;28;20354;-84
2022/11/02 01:54:12;;;;;;;26.40;5.28;;;7.10;99.90;;;7.21;100.00;100715.72;5005254;28;20219;-83
2022/11/02 01:56:41;;;;;;;27.50;5.40;;;7.10;99.90;;;7.30;100.00;100722.97;5003484;28;20250;-84
2022/11/02 01:59:18;;;;;;;27.52;5.28;;;7.20;99.90;;;7.28;100.00;100728.19;5026109;28;20231;-84
2022/11/02 02:01:54;;;;;;;29.05;5.28;;;7.20;99.90;;;7.29;100.00;100724.69;5005983;28;20273;-84
2022/11/02 02:04:23;;;;;;;19.80;4.10;;;7.20;99.90;;;7.33;100.00;100730.94;5017143;28;20248;-85
2022/11/02 02:06:51;;;;;;;23.38;4.60;;;7.20;99.90;;;7.37;100.00;100730.16;4999530;28;20235;-83
2022/11/02 02:09:20;;;;;;;21.00;4.13;;;7.30;99.90;;;7.37;100.00;100736.31;5009552;28;20826;-84
2022/11/02 02:11:47;;;;;;;20.98;4.15;;;7.30;99.90;;;7.33;100.00;100725.66;5000567;28;20243;-84
2022/11/02 02:14:17;;;;;;;18.15;3.70;;;7.30;99.90;;;7.38;100.00;100726.69;5023242;28;20235;-84
2022/11/02 02:17:08;;;;;;;23.10;4.60;;;7.30;99.90;;;7.35;100.00;100730.13;5008059;28;20227;-84
2022/11/02 02:20:08;;;;;;;26.75;5.28;;;7.30;99.90;;;7.38;100.00;100730.19;5034469;28;20234;-84
2022/11/02 02:23:10;;;;;;;22.90;4.70;;;7.30;99.90;;;7.33;100.00;100723.94;5004563;28;20319;-84
2022/11/02 02:26:48;;;;;;;24.92;4.97;;;7.30;99.90;;;7.36;100.00;100731.00;5028130;28;20340;-84
2022/11/02 02:29:23;;;;;;;27.13;5.53;;;7.30;99.90;;;7.35;100.00;100730.13;4888322;28;20674;-84
2022/11/02 02:32:04;;;;;;;21.85;4.35;;;7.30;99.90;;;7.41;100.00;100733.78;5003218;28;20291;-84
2022/11/02 02:34:51;;;;;;;23.17;4.72;;;7.30;99.90;;;7.37;100.00;100728.41;5022511;28;20314;-84
2022/11/02 02:37:27;;;;;;;21.98;4.55;;;7.30;99.90;;;7.35;100.00;100731.88;5003839;28;20327;-83
2022/11/02 02:40:04;;;;;;;20.95;4.28;;;7.30;99.90;;;7.40;100.00;100732.88;5008017;28;20235;-84
2022/11/02 02:42:43;;;;;;;23.58;5.65;;;7.30;99.90;;;7.45;100.00;100741.78;4994748;28;20255;-84
2022/11/02 02:45:34;;;;;;;32.15;6.25;;;7.40;99.90;;;7.44;100.00;100747.00;5003665;28;20322;-84
2022/11/02 02:48:17;;;;;;;20.70;4.30;;;7.40;99.90;;;7.41;100.00;100749.56;5003600;28;20277;-84
2022/11/02 02:51:13;;;;;;;24.05;4.97;;;7.30;99.90;;;7.36;100.00;100744.16;5005703;28;20311;-84
2022/11/02 02:53:48;;;;;;;21.05;4.40;;;7.30;99.90;;;7.33;100.00;100739.72;5007875;28;20228;-84
2022/11/02 02:56:20;;;;;;;22.83;4.78;;;7.30;99.90;;;7.38;100.00;100748.63;4999346;28;20326;-84
2022/11/02 02:58:58;;;;;;;21.10;4.45;;;7.30;99.90;;;7.38;100.00;100742.47;4996966;28;20330;-84
2022/11/02 03:01:26;;;;;;;19.35;3.97;;;7.30;99.90;;;7.36;100.00;100746.78;5008327;28;20284;-84
2022/11/02 03:03:53;;;;;;;19.48;4.05;;;7.30;99.90;;;7.33;100.00;100741.47;5006821;28;20330;-84
2022/11/02 03:06:31;;;;;;;22.25;4.60;;;7.30;99.90;;;7.31;100.00;100736.16;5026861;28;20286;-83
2022/11/02 03:09:27;;;;;;;20.15;4.22;;;7.30;99.90;;;7.30;100.00;100734.38;5006743;28;20269;-84
2022/11/02 03:12:07;;;;;;;19.60;4.05;;;7.30;99.90;;;7.32;100.00;100745.81;5010432;28;20254;-84
2022/11/02 03:14:55;;;;;;;22.75;4.75;;;7.20;99.90;;;7.25;100.00;100743.88;5005312;28;20231;-84
2022/11/02 03:17:58;;;;;;;21.98;4.63;;;7.20;99.90;;;7.14;100.00;100740.06;5025656;28;20258;-84
2022/11/02 03:20:34;;;;;;;16.42;3.42;;;7.10;99.90;;;7.14;100.00;100740.06;5021031;28;20235;-84
2022/11/02 03:23:34;;;;;;;18.80;3.90;;;7.10;99.90;;;7.18;100.00;100755.09;5010034;28;20226;-84
2022/11/02 03:26:07;;;;;;;20.30;4.25;;;7.10;99.90;;;7.07;100.00;100746.91;5008566;28;20255;-85
2022/11/02 03:29:05;;;;;;;19.85;4.10;;;7.00;99.90;;;7.12;100.00;100746.13;5025396;28;20254;-84
2022/11/02 03:32:03;;;;;;;20.20;4.18;;;7.00;99.90;;;7.19;100.00;100751.59;4997932;28;20314;-84
2022/11/02 03:34:43;;;;;;;24.15;4.90;;;7.10;99.90;;;7.28;100.00;100772.91;5007440;28;20269;-84
2022/11/02 03:37:23;;;;;;;20.98;4.38;;;7.20;99.90;;;7.25;100.00;100762.28;4999953;28;20226;-84
2022/11/02 03:40:10;;;;;;;21.17;4.32;;;7.20;99.90;;;7.29;100.00;100766.78;5021761;28;20345;-84
2022/11/02 03:42:39;;;;;;;25.15;5.18;;;7.20;99.90;;;7.29;100.00;100769.41;5007359;28;20314;-84
2022/11/02 03:45:13;;;;;;;27.90;5.68;;;7.20;99.90;;;7.32;100.00;100758.97;5002886;28;20258;-85
2022/11/02 03:47:46;;;;;;;25.88;5.13;;;7.30;99.90;;;7.28;100.00;100767.63;5022366;28;20397;-84
2022/11/02 03:50:19;;;;;;;29.23;5.45;;;7.20;99.90;;;7.32;100.00;100785.28;5008951;28;20227;-85
2022/11/02 03:52:56;;;;;;;19.70;4.07;;;7.20;99.90;;;7.29;100.00;100785.19;5000436;28;20293;-84
2022/11/02 03:55:35;;;;;;;24.20;4.88;;;7.20;99.90;;;7.36;100.00;100794.16;5004947;28;20219;-85
2022/11/02 03:58:02;;;;;;;23.40;4.60;;;7.30;99.90;;;7.45;100.00;100811.94;5000654;28;20251;-85
2022/11/02 04:00:33;;;;;;;42.05;8.15;;;7.30;99.90;;;7.43;100.00;100825.06;5003179;28;20227;-85
2022/11/02 04:03:03;;;;;;;19.13;3.90;;;7.30;99.90;;;7.43;100.00;100816.25;4998115;28;20236;-84
2022/11/02 04:05:35;;;;;;;39.72;7.90;;;7.40;99.90;;;7.39;100.00;100825.81;4998820;28;20242;-85
2022/11/02 04:08:21;;;;;;;37.33;7.43;;;7.30;99.90;;;7.44;100.00;100836.47;4999474;28;20235;-84
2022/11/02 04:16:21;;;;;;;29.90;6.03;;;7.40;99.90;;;7.67;100.00;100869.56;5022272;28;20330;-85
2022/11/02 04:21:40;;;;;;;34.38;6.85;;;7.70;99.90;;;7.80;100.00;100889.22;5013791;28;20253;-84
2022/11/02 04:26:53;;;;;;;19.58;4.05;;;8.00;99.90;;;8.45;100.00;100927.03;5023323;28;20319;-84
2022/11/02 04:29:20;;;;;;;20.90;4.30;;;8.30;99.90;;;8.64;100.00;100938.06;5026894;28;20254;-85
2022/11/02 04:31:47;;;;;;;22.63;4.57;;;8.50;99.90;;;8.62;100.00;100923.06;5021605;28;20239;-84
2022/11/02 04:34:14;;;;;;;22.42;4.63;;;8.50;99.90;;;8.94;100.00;100952.84;5020139;28;20317;-85
2022/11/02 04:36:41;;;;;;;23.42;5.03;;;8.80;99.90;;;9.26;100.00;100959.78;5007618;28;20264;-85
2022/11/02 04:39:08;;;;;;;25.60;5.18;;;9.00;99.90;;;9.63;100.00;100971.16;5025190;28;20294;-85
2022/11/02 04:41:41;;;;;;;29.48;5.72;;;9.40;99.90;;;9.84;100.00;100978.66;5015789;28;20233;-85
2022/11/02 04:44:16;;;;;;;29.40;5.75;;;9.60;99.90;;;9.75;100.00;100967.88;5025740;28;20219;-85
2022/11/02 04:46:44;;;;;;;26.90;5.13;;;9.60;99.90;;;9.77;100.00;100955.59;5025318;28;20234;-84
2022/11/02 04:49:11;;;;;;;23.52;4.78;;;9.70;99.90;;;9.71;100.00;100950.19;5021361;28;20285;-84
2022/11/02 04:51:41;;;;;;;30.35;6.13;;;9.70;99.90;;;9.67;100.00;100943.97;5022638;28;20223;-84
2022/11/02 04:54:15;;;;;;;31.40;6.10;;;9.60;99.90;;;9.86;100.00;100953.16;5033249;28;20226;-84
2022/11/02 04:56:42;;;;;;;29.80;5.75;;;9.80;99.90;;;9.84;100.00;100941.66;4999112;28;20231;-84
2022/11/02 04:59:10;;;;;;;23.15;4.55;;;9.70;99.90;;;9.91;100.00;100940.91;5017632;28;20298;-84
2022/11/02 05:01:37;;;;;;;30.38;6.00;;;9.80;99.90;;;10.02;100.00;100949.94;5020614;28;20239;-85
2022/11/02 05:04:04;;;;;;;18.38;3.80;;;9.90;99.90;;;10.14;100.00;100949.28;5016073;28;20245;-85
2022/11/02 05:06:31;;;;;;;26.58;5.68;;;10.00;99.90;;;10.23;100.00;100958.31;5023981;28;20652;-85
2022/11/02 05:08:58;;;;;;;19.98;4.15;;;10.10;99.90;;;10.27;100.00;100964.56;5023131;28;20224;-85
2022/11/02 05:11:25;;;;;;;17.65;3.72;;;10.20;99.90;;;10.30;100.00;100955.78;5025816;28;20227;-85
2022/11/02 05:13:52;;;;;;;17.45;3.63;;;10.20;99.90;;;10.23;100.00;100953.03;5015006;28;20235;-85
2022/11/02 05:16:19;;;;;;;25.50;5.18;;;10.20;99.90;;;10.15;100.00;100948.44;5024149;28;20277;-88
2022/11/02 05:18:48;;;;;;;20.38;4.22;;;10.10;99.90;;;10.16;100.00;100944.94;5032843;28;20621;-87
2022/11/02 05:21:15;;;;;;;21.63;4.35;;;10.10;99.90;;;10.24;100.00;100948.63;5023126;28;20252;-83
2022/11/02 05:23:42;;;;;;;28.25;5.55;;;10.10;99.90;;;10.41;100.00;100963.09;5029065;28;20250;-81
2022/11/02 05:26:11;;;;;;;24.75;4.95;;;10.30;99.90;;;10.40;100.00;100960.38;5023807;28;20227;-82
2022/11/02 05:28:38;;;;;;;27.65;5.38;;;10.30;99.90;;;10.37;100.00;100944.47;5008036;28;20242;-80
2022/11/02 05:31:06;;;;;;;43.05;8.70;;;10.30;99.90;;;10.26;100.00;100947.81;5024219;28;20223;-81
2022/11/02 05:33:35;;;;;;;20.00;4.00;;;10.20;99.90;;;10.24;100.00;100954.81;4975053;28;20223;-81
2022/11/02 05:36:04;;;;;;;24.92;4.90;;;10.20;99.90;;;10.22;100.00;100951.25;5012304;28;20744;-81
2022/11/02 05:38:42;;;;;;;20.67;4.47;;;10.20;99.90;;;10.27;100.00;100959.25;5007476;28;20235;-82
2022/11/02 05:41:10;;;;;;;18.83;3.90;;;10.20;99.90;;;10.22;100.00;100958.28;5023742;28;20234;-81
2022/11/02 05:43:39;;;;;;;25.88;4.85;;;10.10;99.90;;;10.45;100.00;100964.91;5013768;28;20235;-84
2022/11/02 05:46:07;;;;;;;18.67;4.07;;;10.30;99.90;;;10.55;100.00;100968.63;5031559;28;20226;-83
2022/11/02 05:48:34;;;;;;;19.65;4.07;;;10.40;99.90;;;10.57;100.00;100965.13;5004927;28;20239;-84
2022/11/02 05:51:03;;;;;;;34.03;6.82;;;10.40;99.90;;;10.58;100.00;100960.75;5032588;28;20266;-84
2022/11/02 05:53:32;;;;;;;18.73;4.05;;;10.50;99.90;;;10.76;100.00;100976.03;5025430;28;20247;-83
2022/11/02 05:56:05;;;;;;;45.90;9.23;;;10.60;99.90;;;10.69;100.00;100963.56;5021214;28;20237;-82
2022/11/02 05:58:33;;;;;;;36.28;7.38;;;10.70;99.90;;;10.53;100.00;100962.41;5016101;28;20239;-83
2022/11/02 06:01:03;;;;;;;32.75;6.65;;;10.50;99.90;;;10.49;100.00;100961.47;5005879;28;20247;-83
2022/11/02 06:03:31;;;;;;;23.95;4.93;;;10.40;99.90;;;10.43;100.00;100957.81;5029247;28;20251;-83
2022/11/02 06:06:04;;;;;;;23.70;4.80;;;10.40;99.90;;;10.53;100.00;100973.88;5021405;28;20232;-82
2022/11/02 06:08:34;;;;;;;28.85;6.03;;;10.40;99.90;;;10.51;100.00;100972.97;5019663;28;20241;-83
2022/11/02 06:11:12;;;;;;;20.83;4.35;;;10.40;99.90;;;10.41;100.00;100967.47;4999294;28;20235;-82
2022/11/02 06:13:40;;;;;;;24.52;4.82;;;10.30;99.90;;;10.48;100.00;100979.94;5020016;28;20246;-82
2022/11/02 06:16:10;;;;;;;25.90;5.07;;;10.40;99.90;;;10.45;100.00;100974.59;5024557;28;20290;-83
2022/11/02 06:18:38;;;;;;;24.80;4.93;;;10.30;99.90;;;10.48;100.00;100978.19;5025919;28;20239;-81
2022/11/02 06:21:05;;;;;;;26.23;5.28;;;10.40;99.90;;;10.47;100.00;100988.75;5022371;28;20313;-81
2022/11/02 06:23:33;;;;;;;30.05;6.07;;;10.40;99.90;;;10.39;100.00;100985.94;5003936;28;20250;-83
2022/11/02 06:26:02;;;;;;;22.65;4.50;;;10.40;99.90;;;10.37;100.00;100968.25;5020614;28;20239;-81
2022/11/02 06:28:30;;;;;;;24.05;4.97;;;10.30;99.90;;;10.75;100.00;101008.63;5016041;28;20232;-81
2022/11/02 06:30:57;;;;;;;15.98;3.42;;;10.50;99.90;;;10.63;100.00;100985.50;5012591;28;20250;-81
2022/11/02 06:33:25;;;;;;;16.45;3.55;;;10.50;99.90;;;10.51;100.00;100986.19;5019333;28;20231;-82
2022/11/02 06:35:54;;;;;;;13.50;2.92;;;10.40;99.90;;;10.46;100.00;100984.31;5027896;28;20223;-80
2022/11/02 06:38:22;;;;;;;22.13;4.57;;;10.40;99.90;;;10.43;100.00;100993.09;4984802;28;20228;-80
2022/11/02 06:41:02;;;;;;;17.83;3.65;;;10.30;99.90;;;10.46;100.00;100994.91;5024123;28;20241;-83
2022/11/02 06:43:30;;;;;;;19.67;4.10;;;10.40;99.90;;;10.35;100.00;100997.31;5028393;28;20230;-81
2022/11/02 06:45:57;;;;;;;18.50;3.88;;;10.30;99.90;;;10.41;100.00;101008.03;5029254;28;20234;-81
2022/11/02 06:48:26;;;;;;;17.90;3.83;;;10.30;99.90;;;10.52;100.00;101027.63;5029624;28;20231;-81
2022/11/02 06:51:01;;;;;;;18.15;3.85;;;10.30;99.90;;;10.45;100.00;101019.56;5029726;28;20237;-81
2022/11/02 06:53:29;;;;;;;36.22;7.38;;;10.40;99.90;;;10.54;100.00;101033.84;5026690;28;20301;-82
2022/11/02 06:55:58;;;;;;;22.17;4.53;;;10.40;99.90;;;10.52;100.00;101024.09;5027396;28;20363;-83
2022/11/02 06:58:26;;;;;;;24.90;5.18;;;10.40;99.90;;;10.50;100.00;101023.19;5023855;28;20307;-80
2022/11/02 07:00:59;;;;;;;21.38;4.50;;;10.40;99.90;;;10.46;100.00;101029.28;5002832;28;20243;-81
2022/11/02 07:03:27;;;;;;;23.05;4.75;;;10.40;99.90;;;10.54;100.00;101033.84;5006615;28;20321;-81
2022/11/02 07:05:55;;;;;;;14.98;3.25;;;10.50;99.90;;;10.74;100.00;101060.66;5000248;28;20226;-81
2022/11/02 07:08:22;;;;;;;22.95;4.63;;;10.60;99.90;;;10.74;100.00;101057.13;5047309;28;20310;-81
2022/11/02 07:10:50;;;;;;;20.38;4.40;;;10.60;99.90;;;10.69;100.00;101056.16;5016093;28;20239;-81
2022/11/02 07:13:17;;;;;;;22.67;4.85;;;10.60;99.90;;;10.64;100.00;101053.41;5024097;28;20722;-82
2022/11/02 07:15:44;;;;;;;18.92;4.15;;;10.60;99.90;;;10.77;100.00;101062.47;5022021;28;20251;-79
2022/11/02 07:18:12;;;;;;;22.58;4.85;;;10.60;99.90;;;10.74;100.00;101068.59;5024790;28;20588;-82
2022/11/02 07:20:39;;;;;;;22.02;4.65;;;10.70;99.90;;;11.13;100.00;101094.00;5022565;28;20281;-81
2022/11/02 07:23:07;;;;;;;19.75;4.40;;;10.90;99.90;;;11.34;100.00;101082.84;5030353;28;20233;-81
2022/11/02 07:25:35;;;;;;;17.50;3.70;;;11.20;99.90;;;11.27;100.00;101071.28;5036053;28;20318;-82
2022/11/02 07:28:03;;;;;;;15.98;3.53;;;11.20;99.90;;;11.32;100.00;101072.25;5021657;28;20323;-82
2022/11/02 07:30:32;;;;;;;17.30;3.72;;;11.20;99.90;;;11.34;100.00;101065.22;4999881;28;20287;-81
2022/11/02 07:32:59;;;;;;;16.10;3.53;;;11.20;99.90;;;11.41;100.00;101071.50;5024739;28;20254;-81
2022/11/02 07:35:26;;;;;;;18.15;3.85;;;11.20;99.90;;;11.55;100.00;101067.31;5027058;28;20238;-80
2022/11/02 07:37:59;;;;;;;17.55;3.70;;;11.40;99.90;;;11.66;100.00;101075.41;5026694;28;20314;-82
2022/11/02 07:40:28;;;;;;;17.50;3.70;;;11.50;99.90;;;11.65;100.00;101065.69;5010084;28;20326;-82
2022/11/02 07:42:56;;;;;;;24.83;5.35;;;11.50;99.90;;;11.80;100.00;101072.16;5026750;28;20307;-81
2022/11/02 07:45:24;;;;;;;29.60;6.05;;;11.70;99.90;;;11.89;100.00;101068.75;5036482;28;20757;-83
2022/11/02 07:47:52;;;;;;;21.60;4.50;;;11.80;99.90;;;11.76;100.00;101050.88;5021643;28;20231;-82
2022/11/02 07:50:25;;;;;;;26.77;5.53;;;11.70;99.90;;;11.72;100.00;101047.28;5005223;28;20226;-80
2022/11/02 07:52:59;;;;;;;27.90;5.40;;;11.60;99.90;;;11.96;100.00;101060.00;5005459;28;20630;-87
2022/11/02 07:55:31;;;;;;;20.48;4.45;;;11.80;99.90;;;11.85;100.00;101058.97;4958009;28;20239;-84
2022/11/02 07:58:09;;;;;;;26.42;5.10;;;11.70;99.90;;;11.98;100.00;101050.31;4978819;28;20223;-85
2022/11/02 08:00:43;;;;;;;37.53;7.10;;;11.80;99.90;;;12.01;100.00;101065.38;4970592;28;20284;-85
2022/11/02 08:03:16;;;;;;;37.53;7.18;;;11.70;99.90;;;12.04;100.00;101068.94;5009816;28;20246;-84
2022/11/02 08:05:51;;;;;;;44.95;8.25;;;11.90;99.90;;;11.95;100.00;101073.25;4962206;28;20232;-85
2022/11/02 08:08:24;;;;;;;33.85;6.18;;;11.80;99.90;;;11.88;100.00;101081.97;4968021;28;20228;-84
2022/11/02 08:11:07;;;;;;;30.15;6.10;;;11.50;99.90;;;12.07;100.00;101100.81;4997452;28;20242;-85
2022/11/02 08:13:36;;;;;;;32.60;6.65;;;11.90;99.90;;;12.29;100.00;101104.63;4997040;28;20231;-85
2022/11/02 08:16:04;;;;;;;31.30;6.38;;;12.10;99.90;;;12.16;100.00;101082.38;5002952;28;20306;-85
2022/11/02 08:18:31;;;;;;;30.58;6.30;;;12.10;99.90;;;12.26;100.00;101103.69;4993976;28;20281;-84
2022/11/02 08:21:03;;;;;;;25.85;5.35;;;12.10;99.90;;;12.36;100.00;101100.28;5005432;28;20293;-84
2022/11/02 08:23:52;;;;;;;26.90;5.60;;;12.20;99.90;;;12.32;100.00;101082.56;4999378;28;20300;-84
2022/11/02 08:26:25;;;;;;;22.15;4.63;;;12.10;99.90;;;12.43;100.00;101091.53;5019349;28;20243;-85
2022/11/02 08:29:08;;;;;;;28.50;5.80;;;12.20;99.90;;;12.42;100.00;101061.47;4987040;28;20253;-85
2022/11/02 08:31:39;;;;;;;40.03;7.25;;;12.30;99.90;;;12.47;100.00;101061.50;5012273;28;20227;-84
2022/11/02 08:34:10;;;;;;;46.42;8.35;;;12.30;99.90;;;12.62;100.00;101074.06;5006033;28;20234;-84
2022/11/02 08:36:44;;;;;;;45.58;8.52;;;12.40;99.90;;;12.65;100.00;101067.03;4995673;28;20285;-84
2022/11/02 08:39:12;;;;;;;23.38;4.75;;;12.40;99.90;;;12.62;100.00;101066.09;5005333;28;20229;-84
2022/11/02 08:41:45;;;;;;;26.83;5.60;;;12.50;99.90;;;12.75;100.00;101062.69;4981863;28;20256;-84
2022/11/02 08:44:12;;;;;;;26.20;5.45;;;12.60;99.90;;;12.73;100.00;101040.56;4965253;28;20246;-84
2022/11/02 08:46:39;;;;;;;26.27;5.30;;;12.60;99.90;;;12.77;100.00;101029.09;5004904;28;20235;-84
2022/11/02 08:49:06;;;;;;;27.00;5.50;;;12.60;99.90;;;12.86;100.00;101038.91;4996268;28;20341;-83
2022/11/02 08:51:33;;;;;;;24.23;4.93;;;12.70;99.90;;;12.90;100.00;101046.91;5013863;28;20293;-84
2022/11/02 08:54:00;;;;;;;23.20;4.75;;;12.80;99.90;;;12.89;100.00;101034.53;5004911;28;20262;-84
2022/11/02 08:56:27;;;;;;;22.45;4.68;;;12.80;99.90;;;12.93;100.00;101031.03;5022636;28;20241;-83
2022/11/02 08:58:54;;;;;;;25.88;5.30;;;12.80;99.90;;;12.99;100.00;101028.41;5004051;28;20235;-84
2022/11/02 09:01:22;;;;;;;21.90;4.50;;;12.80;99.90;;;13.14;100.00;101036.53;5005068;28;20309;-84
2022/11/02 09:03:49;;;;;;;23.35;4.90;;;12.90;99.90;;;13.23;99.78;101026.91;5024745;28;20234;-84
2022/11/02 09:06:16;;;;;;;28.33;5.53;;;13.00;99.90;;;13.24;99.14;101007.44;5022472;28;20715;-84
2022/11/02 09:08:43;;;;;;;29.50;6.13;;;13.10;99.90;;;13.29;98.75;101008.34;5023814;28;20640;-84
2022/11/02 09:11:10;;;;;;;30.35;6.32;;;13.10;99.90;;;13.31;98.49;101014.56;5021578;28;20319;-84
2022/11/02 09:13:37;;;;;;;22.55;4.60;;;13.10;99.90;;;13.19;97.59;100991.47;5020596;28;20255;-83
2022/11/02 09:16:05;;;;;;;22.20;4.45;;;13.10;99.90;;;13.30;95.13;100960.56;5023263;28;20227;-83
2022/11/02 09:18:32;;;;;;;26.50;5.43;;;13.20;99.90;;;13.53;94.22;100979.28;5003604;28;20234;-84
2022/11/02 09:21:04;;;;;;;24.70;5.13;;;13.30;99.90;;;13.42;92.98;100943.78;5012108;28;20318;-83
2022/11/02 09:23:32;;;;;;;19.05;3.88;;;13.30;99.90;;;13.44;91.83;100924.31;5021776;28;20284;-84
2022/11/02 09:25:59;;;;;;;26.52;5.70;;;13.30;99.90;;;13.33;90.80;100890.63;5024597;28;20296;-83
2022/11/02 09:28:26;;;;;;;22.00;4.68;;;13.30;99.90;;;13.43;90.70;100895.09;5006562;28;20254;-84
2022/11/02 09:30:53;;;;;;;20.67;4.32;;;13.30;99.90;;;13.56;90.02;100904.00;5010012;28;20231;-83
2022/11/02 09:33:21;;;;;;;22.30;4.68;;;13.40;99.90;;;13.51;89.03;100861.47;5021349;28;20224;-83
2022/11/02 09:35:48;;;;;;;25.38;5.47;;;13.30;99.90;;;13.59;89.19;100894.28;5019798;28;20736;-82
2022/11/02 09:38:17;;;;;;;30.48;5.97;;;13.40;99.90;;;13.77;89.58;100920.94;5003479;28;20281;-83
2022/11/02 09:40:53;;;;;;;33.95;6.50;;;13.50;99.90;;;13.58;87.39;100843.78;5019300;28;20231;-85
2022/11/02 09:43:52;;;;;;;32.05;6.15;;;13.50;99.90;;;13.75;87.13;100850.03;5019931;28;20234;-86
2022/11/02 09:46:31;;;;;;;24.85;5.15;;;13.50;99.90;;;13.88;86.48;100882.84;4980299;28;20227;-87
2022/11/02 09:49:20;;;;;;;21.42;4.50;;;13.60;99.90;;;13.82;85.52;100816.38;5003771;28;20242;-85
2022/11/02 09:51:58;;;;;;;23.40;4.78;;;13.60;99.90;;;13.88;86.38;100845.63;5002422;28;20336;-85
2022/11/02 09:54:39;;;;;;;23.42;6.07;;;13.70;99.90;;;13.99;86.02;100862.50;5004111;28;20328;-87
2022/11/02 09:57:29;;;;;;;19.58;4.13;;;13.80;99.90;;;14.06;85.11;100840.34;5025371;28;20263;-86
2022/11/02 09:59:56;;;;;;;16.95;3.55;;;13.80;99.90;;;14.22;85.88;100878.50;5008332;28;20319;-85
2022/11/02 10:02:39;;;;;;;20.63;4.28;;;14.00;99.90;;;14.16;84.06;100812.88;5030402;28;20269;-85
2022/11/02 10:05:34;;;;;;;32.85;6.53;;;14.10;99.90;;;14.25;81.99;100774.75;5025840;28;20226;-84
2022/11/02 10:08:28;;;;;;;18.67;3.95;;;14.10;99.90;;;14.25;81.80;100777.41;5027773;28;20322;-84
2022/11/02 10:11:20;;;;;;;15.35;3.50;;;14.00;99.90;;;14.41;81.16;100769.44;5001949;28;20305;-83
2022/11/02 10:13:59;;;;;;;17.23;3.58;;;14.20;99.90;;;14.36;80.73;100759.69;5012387;28;20240;-84
2022/11/02 10:16:39;;;;;;;16.50;3.50;;;14.10;99.90;;;14.45;80.99;100762.38;5011462;28;20258;-83
2022/11/02 10:19:14;;;;;;;19.65;4.22;;;14.30;99.90;;;14.38;82.27;100780.09;5011060;28;20262;-83
2022/11/02 10:21:47;;;;;;;16.00;3.38;;;14.20;99.90;;;14.61;82.48;100812.03;5011606;28;20273;-84
2022/11/02 10:24:45;;;;;;;18.98;4.07;;;14.40;99.90;;;14.60;78.76;100714.44;5029522;28;20242;-82
2022/11/02 10:27:26;;;;;;;18.00;3.78;;;14.40;99.90;;;14.52;78.31;100696.72;5010246;28;20266;-83
2022/11/02 10:30:12;;;;;;;16.63;3.50;;;14.40;99.90;;;14.69;77.63;100706.41;5019699;28;20235;-84
2022/11/02 10:32:41;;;;;;;16.98;3.70;;;14.50;99.90;;;14.81;78.14;100712.59;5027757;28;20261;-83
2022/11/02 10:35:21;;;;;;;25.35;5.35;;;14.60;99.90;;;14.66;77.00;100653.19;5029300;28;20281;-83
2022/11/02 10:38:40;;;;;;;16.88;3.70;;;14.50;99.90;;;14.82;77.82;100706.38;5009783;28;20231;-83
2022/11/02 10:41:37;;;;;;;15.40;3.40;;;14.50;99.90;;;14.81;78.22;100692.16;5019895;28;20263;-83